sensor_id;sensor_type;location;lat;lon;timestamp;pressure;altitude;pressure_sealevel;temperature;humidity
76011;BME280;64701;43.536;1.478;2022-11-15T00:00:20;99215.56;;;13.37;80.42
76011;BME280;64701;43.536;1.478;2022-11-15T00:02:45;99217.63;;;13.35;80.64
76011;BME280;64701;43.536;1.478;2022-11-15T00:05:11;99214.38;;;13.33;80.68
76011;BME280;64701;43.536;1.478;2022-11-15T00:07:36;99195.97;;;13.32;80.86
76011;BME280;64701;43.536;1.478;2022-11-15T00:10:02;99184.97;;;13.28;80.94
76011;BME280;64701;43.536;1.478;2022-11-15T00:12:28;99193.16;;;13.27;80.59
76011;BME280;64701;43.536;1.478;2022-11-15T00:14:53;99174.97;;;13.24;80.68
76011;BME280;64701;43.536;1.478;2022-11-15T00:17:18;99183.41;;;13.21;81.38
76011;BME280;64701;43.536;1.478;2022-11-15T00:19:44;99184.63;;;13.18;80.78
76011;BME280;64701;43.536;1.478;2022-11-15T00:22:10;99174.44;;;13.15;81.11
76011;BME280;64701;43.536;1.478;2022-11-15T00:24:35;99176.50;;;13.13;81.25
76011;BME280;64701;43.536;1.478;2022-11-15T00:27:00;99174.00;;;13.12;81.79
76011;BME280;64701;43.536;1.478;2022-11-15T00:29:25;99164.66;;;13.09;81.83
76011;BME280;64701;43.536;1.478;2022-11-15T00:31:51;99163.00;;;13.08;82.34
76011;BME280;64701;43.536;1.478;2022-11-15T00:34:16;99161.59;;;13.05;82.48
76011;BME280;64701;43.536;1.478;2022-11-15T00:36:41;99159.75;;;13.06;82.68
76011;BME280;64701;43.536;1.478;2022-11-15T00:39:06;99146.91;;;13.03;82.91
76011;BME280;64701;43.536;1.478;2022-11-15T00:41:32;99144.25;;;13.03;83.41
76011;BME280;64701;43.536;1.478;2022-11-15T00:43:57;99138.13;;;13.02;83.61
76011;BME280;64701;43.536;1.478;2022-11-15T00:46:22;99136.13;;;12.98;84.20
76011;BME280;64701;43.536;1.478;2022-11-15T00:48:48;99129.16;;;12.97;83.61
76011;BME280;64701;43.536;1.478;2022-11-15T00:51:13;99118.53;;;12.97;83.85
76011;BME280;64701;43.536;1.478;2022-11-15T00:53:38;99113.22;;;12.97;83.07
76011;BME280;64701;43.536;1.478;2022-11-15T00:56:04;99109.53;;;12.98;83.13
76011;BME280;64701;43.536;1.478;2022-11-15T00:58:29;99104.22;;;12.98;83.38
76011;BME280;64701;43.536;1.478;2022-11-15T01:00:54;99100.97;;;12.96;83.19
76011;BME280;64701;43.536;1.478;2022-11-15T01:03:19;99104.22;;;12.98;82.90
76011;BME280;64701;43.536;1.478;2022-11-15T01:05:45;99096.00;;;12.99;82.86
76011;BME280;64701;43.536;1.478;2022-11-15T01:08:16;99095.81;;;13.01;82.17
76011;BME280;64701;43.536;1.478;2022-11-15T01:10:42;99093.97;;;13.01;82.15
76011;BME280;64701;43.536;1.478;2022-11-15T01:13:07;99090.28;;;13.02;82.83
76011;BME280;64701;43.536;1.478;2022-11-15T01:15:32;99090.28;;;13.02;83.52
76011;BME280;64701;43.536;1.478;2022-11-15T01:17:58;99087.22;;;12.99;84.46
76011;BME280;64701;43.536;1.478;2022-11-15T01:20:23;99084.56;;;12.99;83.80
76011;BME280;64701;43.536;1.478;2022-11-15T01:22:48;99087.47;;;12.97;83.94
76011;BME280;64701;43.536;1.478;2022-11-15T01:25:13;99079.50;;;12.97;84.79
76011;BME280;64701;43.536;1.478;2022-11-15T01:27:39;99080.50;;;12.96;84.67
76011;BME280;64701;43.536;1.478;2022-11-15T01:30:04;99076.88;;;12.91;86.64
76011;BME280;64701;43.536;1.478;2022-11-15T01:32:30;99073.19;;;12.92;85.15
76011;BME280;64701;43.536;1.478;2022-11-15T01:34:55;99071.13;;;12.94;85.15
76011;BME280;64701;43.536;1.478;2022-11-15T01:37:20;99065.81;;;12.94;85.24
76011;BME280;64701;43.536;1.478;2022-11-15T01:39:46;99060.50;;;12.94;85.18
76011;BME280;64701;43.536;1.478;2022-11-15T01:42:14;99054.97;;;12.95;85.00
76011;BME280;64701;43.536;1.478;2022-11-15T01:44:44;99048.25;;;12.93;85.68
76011;BME280;64701;43.536;1.478;2022-11-15T01:49:41;99037.38;;;12.94;86.13
76011;BME280;64701;43.536;1.478;2022-11-15T01:52:10;99031.88;;;12.96;86.16
76011;BME280;64701;43.536;1.478;2022-11-15T01:54:37;99030.84;;;12.97;86.21
76011;BME280;64701;43.536;1.478;2022-11-15T01:57:04;99031.41;;;12.99;85.85
76011;BME280;64701;43.536;1.478;2022-11-15T01:59:31;99024.50;;;12.98;86.80
76011;BME280;64701;43.536;1.478;2022-11-15T02:01:57;99021.59;;;12.99;86.66
76011;BME280;64701;43.536;1.478;2022-11-15T02:04:24;99008.09;;;13.01;86.92
76011;BME280;64701;43.536;1.478;2022-11-15T02:06:50;98999.53;;;12.99;87.31
76011;BME280;64701;43.536;1.478;2022-11-15T02:09:16;98987.28;;;12.98;87.69
76011;BME280;64701;43.536;1.478;2022-11-15T02:11:41;98979.88;;;13.00;87.79
76011;BME280;64701;43.536;1.478;2022-11-15T02:14:07;98978.06;;;13.00;88.00
76011;BME280;64701;43.536;1.478;2022-11-15T02:34:28;98935.38;;;12.95;89.26
76011;BME280;64701;43.536;1.478;2022-11-15T02:37:07;98926.03;;;12.93;89.63
76011;BME280;64701;43.536;1.478;2022-11-15T02:39:56;98920.25;;;12.96;88.42
76011;BME280;64701;43.536;1.478;2022-11-15T02:42:25;98917.00;;;12.94;89.27
76011;BME280;64701;43.536;1.478;2022-11-15T02:45:11;98912.13;;;12.91;89.55
76011;BME280;64701;43.536;1.478;2022-11-15T02:47:41;98917.66;;;12.89;89.57
76011;BME280;64701;43.536;1.478;2022-11-15T02:50:08;98911.53;;;12.89;89.87
76011;BME280;64701;43.536;1.478;2022-11-15T02:52:35;98908.06;;;12.88;89.97
76011;BME280;64701;43.536;1.478;2022-11-15T02:55:00;98918.69;;;12.88;89.77
76011;BME280;64701;43.536;1.478;2022-11-15T03:02:29;98912.75;;;12.93;89.04
76011;BME280;64701;43.536;1.478;2022-11-15T03:10:36;98887.56;;;12.95;89.27
76011;BME280;64701;43.536;1.478;2022-11-15T03:15:33;98876.72;;;12.97;89.43
76011;BME280;64701;43.536;1.478;2022-11-15T03:18:04;98876.72;;;12.97;90.17
76011;BME280;64701;43.536;1.478;2022-11-15T03:20:32;98868.13;;;12.95;90.84
76011;BME280;64701;43.536;1.478;2022-11-15T03:23:09;98874.06;;;12.97;90.81
76011;BME280;64701;43.536;1.478;2022-11-15T03:25:38;98875.44;;;12.99;90.44
76011;BME280;64701;43.536;1.478;2022-11-15T03:28:05;98867.84;;;13.03;91.03
76011;BME280;64701;43.536;1.478;2022-11-15T03:30:31;98861.50;;;13.04;91.73
76011;BME280;64701;43.536;1.478;2022-11-15T03:32:58;98867.78;;;13.09;91.34
76011;BME280;64701;43.536;1.478;2022-11-15T03:35:27;98857.53;;;13.13;92.09
76011;BME280;64701;43.536;1.478;2022-11-15T03:37:57;98848.66;;;13.19;91.88
76011;BME280;64701;43.536;1.478;2022-11-15T03:40:27;98843.94;;;13.21;92.36
76011;BME280;64701;43.536;1.478;2022-11-15T03:45:31;98835.63;;;13.29;92.93
76011;BME280;64701;43.536;1.478;2022-11-15T03:48:03;98834.72;;;13.35;92.45
76011;BME280;64701;43.536;1.478;2022-11-15T03:50:30;98828.50;;;13.41;91.97
76011;BME280;64701;43.536;1.478;2022-11-15T03:52:56;98825.41;;;13.44;92.46
76011;BME280;64701;43.536;1.478;2022-11-15T03:55:22;98821.81;;;13.51;91.75
76011;BME280;64701;43.536;1.478;2022-11-15T03:57:51;98824.28;;;13.52;92.65
76011;BME280;64701;43.536;1.478;2022-11-15T04:00:18;98822.53;;;13.58;92.13
76011;BME280;64701;43.536;1.478;2022-11-15T04:02:43;98821.63;;;13.64;91.59
76011;BME280;64701;43.536;1.478;2022-11-15T04:05:08;98812.38;;;13.66;92.24
76011;BME280;64701;43.536;1.478;2022-11-15T04:07:34;98814.13;;;13.72;91.54
76011;BME280;64701;43.536;1.478;2022-11-15T04:09:59;98813.69;;;13.75;91.33
76011;BME280;64701;43.536;1.478;2022-11-15T04:12:27;98819.56;;;13.77;91.65
76011;BME280;64701;43.536;1.478;2022-11-15T04:14:57;98818.53;;;13.78;92.22
76011;BME280;64701;43.536;1.478;2022-11-15T04:20:01;98814.00;;;13.79;92.70
76011;BME280;64701;43.536;1.478;2022-11-15T04:22:44;98809.41;;;13.86;92.00
76011;BME280;64701;43.536;1.478;2022-11-15T04:25:28;98803.59;;;13.89;91.99
76011;BME280;64701;43.536;1.478;2022-11-15T04:27:54;98804.31;;;13.96;91.04
76011;BME280;64701;43.536;1.478;2022-11-15T04:30:19;98804.91;;;13.98;90.98
76011;BME280;64701;43.536;1.478;2022-11-15T04:32:44;98800.59;;;13.97;91.94
76011;BME280;64701;43.536;1.478;2022-11-15T04:35:09;98788.81;;;13.93;92.75
76011;BME280;64701;43.536;1.478;2022-11-15T04:37:35;98795.28;;;13.97;92.35
76011;BME280;64701;43.536;1.478;2022-11-15T04:40:00;98796.91;;;13.98;92.64
76011;BME280;64701;43.536;1.478;2022-11-15T04:42:25;98791.69;;;14.03;92.00
76011;BME280;64701;43.536;1.478;2022-11-15T04:44:51;98785.13;;;14.06;91.74
76011;BME280;64701;43.536;1.478;2022-11-15T04:47:16;98787.19;;;14.04;92.28
76011;BME280;64701;43.536;1.478;2022-11-15T04:49:41;98782.56;;;13.99;93.17
76011;BME280;64701;43.536;1.478;2022-11-15T04:52:08;98780.47;;;14.01;93.27
76011;BME280;64701;43.536;1.478;2022-11-15T04:54:34;98778.41;;;14.03;93.34
76011;BME280;64701;43.536;1.478;2022-11-15T04:56:59;98771.91;;;13.99;93.74
76011;BME280;64701;43.536;1.478;2022-11-15T04:59:25;98773.88;;;14.04;93.69
76011;BME280;64701;43.536;1.478;2022-11-15T05:01:50;98756.63;;;14.06;93.88
76011;BME280;64701;43.536;1.478;2022-11-15T05:04:16;98762.31;;;14.10;93.41
76011;BME280;64701;43.536;1.478;2022-11-15T05:06:44;98769.25;;;14.11;93.62
76011;BME280;64701;43.536;1.478;2022-11-15T05:09:10;98763.94;;;14.11;93.73
76011;BME280;64701;43.536;1.478;2022-11-15T05:11:35;98758.84;;;14.09;93.92
76011;BME280;64701;43.536;1.478;2022-11-15T05:14:00;98753.97;;;14.06;94.12
76011;BME280;64701;43.536;1.478;2022-11-15T05:16:26;98755.69;;;14.12;94.29
76011;BME280;64701;43.536;1.478;2022-11-15T05:18:52;98759.41;;;14.11;94.21
76011;BME280;64701;43.536;1.478;2022-11-15T05:21:17;98756.75;;;14.11;94.02
76011;BME280;64701;43.536;1.478;2022-11-15T05:23:42;98748.78;;;14.11;94.48
76011;BME280;64701;43.536;1.478;2022-11-15T05:26:08;98747.16;;;14.10;94.58
76011;BME280;64701;43.536;1.478;2022-11-15T05:28:33;98744.38;;;14.05;94.93
76011;BME280;64701;43.536;1.478;2022-11-15T05:31:20;98743.66;;;14.10;94.27
76011;BME280;64701;43.536;1.478;2022-11-15T05:33:45;98736.38;;;14.17;94.02
76011;BME280;64701;43.536;1.478;2022-11-15T05:38:42;98739.72;;;14.12;94.75
76011;BME280;64701;43.536;1.478;2022-11-15T05:41:07;98733.59;;;14.12;95.13
76011;BME280;64701;43.536;1.478;2022-11-15T05:43:33;98745.03;;;14.12;94.69
76011;BME280;64701;43.536;1.478;2022-11-15T05:46:00;98717.75;;;14.05;95.62
76011;BME280;64701;43.536;1.478;2022-11-15T05:48:26;98719.94;;;14.08;95.43
76011;BME280;64701;43.536;1.478;2022-11-15T05:50:51;98720.97;;;14.07;95.31
76011;BME280;64701;43.536;1.478;2022-11-15T05:53:18;98726.31;;;14.07;95.43
76011;BME280;64701;43.536;1.478;2022-11-15T05:55:44;98730.34;;;14.10;95.57
76011;BME280;64701;43.536;1.478;2022-11-15T05:58:09;98731.19;;;14.10;95.23
76011;BME280;64701;43.536;1.478;2022-11-15T06:00:35;98727.00;;;14.14;95.14
76011;BME280;64701;43.536;1.478;2022-11-15T06:03:00;98721.78;;;14.08;95.37
76011;BME280;64701;43.536;1.478;2022-11-15T06:05:25;98733.03;;;14.10;95.39
76011;BME280;64701;43.536;1.478;2022-11-15T06:07:51;98727.47;;;14.11;95.20
76011;BME280;64701;43.536;1.478;2022-11-15T06:10:16;98725.72;;;14.17;94.85
76011;BME280;64701;43.536;1.478;2022-11-15T06:12:41;98718.41;;;14.12;94.98
76011;BME280;64701;43.536;1.478;2022-11-15T06:15:07;98732.53;;;14.13;95.04
76011;BME280;64701;43.536;1.478;2022-11-15T06:17:32;98718.41;;;14.12;95.39
76011;BME280;64701;43.536;1.478;2022-11-15T06:19:57;98731.50;;;14.14;95.37
76011;BME280;64701;43.536;1.478;2022-11-15T06:22:23;98731.28;;;14.15;95.11
76011;BME280;64701;43.536;1.478;2022-11-15T06:24:48;98734.75;;;14.16;94.62
76011;BME280;64701;43.536;1.478;2022-11-15T06:27:13;98721.22;;;14.17;94.38
76011;BME280;64701;43.536;1.478;2022-11-15T06:29:39;98732.53;;;14.24;94.22
76011;BME280;64701;43.536;1.478;2022-11-15T06:32:04;98717.34;;;14.25;94.32
76011;BME280;64701;43.536;1.478;2022-11-15T06:34:29;98722.34;;;14.21;94.38
76011;BME280;64701;43.536;1.478;2022-11-15T06:36:55;98732.41;;;14.19;94.58
76011;BME280;64701;43.536;1.478;2022-11-15T06:39:20;98727.09;;;14.19;94.84
76011;BME280;64701;43.536;1.478;2022-11-15T06:41:45;98733.81;;;14.22;94.56
76011;BME280;64701;43.536;1.478;2022-11-15T06:44:11;98738.78;;;14.18;94.82
76011;BME280;64701;43.536;1.478;2022-11-15T06:46:36;98728.63;;;14.15;95.39
76011;BME280;64701;43.536;1.478;2022-11-15T06:49:01;98730.56;;;14.20;95.02
76011;BME280;64701;43.536;1.478;2022-11-15T06:51:27;98728.72;;;14.20;95.05
76011;BME280;64701;43.536;1.478;2022-11-15T06:53:52;98736.38;;;14.17;95.22
76011;BME280;64701;43.536;1.478;2022-11-15T06:56:17;98728.03;;;14.13;95.62
76011;BME280;64701;43.536;1.478;2022-11-15T06:58:42;98735.56;;;14.16;95.48
76011;BME280;64701;43.536;1.478;2022-11-15T07:01:09;98732.41;;;14.19;95.01
76011;BME280;64701;43.536;1.478;2022-11-15T07:03:34;98729.44;;;14.16;95.47
76011;BME280;64701;43.536;1.478;2022-11-15T07:06:00;98729.75;;;14.19;95.02
76011;BME280;64701;43.536;1.478;2022-11-15T07:08:26;98733.34;;;14.13;95.48
76011;BME280;64701;43.536;1.478;2022-11-15T07:10:52;98725.38;;;14.13;95.75
76011;BME280;64701;43.536;1.478;2022-11-15T07:13:17;98727.47;;;14.11;95.71
76011;BME280;64701;43.536;1.478;2022-11-15T07:15:42;98717.16;;;14.15;95.76
76011;BME280;64701;43.536;1.478;2022-11-15T07:18:08;98729.44;;;14.16;95.37
76011;BME280;64701;43.536;1.478;2022-11-15T07:20:33;98724.44;;;14.19;95.19
76011;BME280;64701;43.536;1.478;2022-11-15T07:23:02;98726.06;;;14.20;94.91
76011;BME280;64701;43.536;1.478;2022-11-15T07:25:27;98728.00;;;14.25;94.78
76011;BME280;64701;43.536;1.478;2022-11-15T07:27:56;98736.25;;;14.23;94.86
76011;BME280;64701;43.536;1.478;2022-11-15T07:30:21;98725.59;;;14.23;94.65
76011;BME280;64701;43.536;1.478;2022-11-15T07:32:47;98730.22;;;14.28;94.40
76011;BME280;64701;43.536;1.478;2022-11-15T07:35:12;98723.50;;;14.25;94.40
76011;BME280;64701;43.536;1.478;2022-11-15T07:37:37;98716.69;;;14.29;94.35
76011;BME280;64701;43.536;1.478;2022-11-15T07:40:02;98712.94;;;14.30;94.02
76011;BME280;64701;43.536;1.478;2022-11-15T07:42:30;98710.28;;;14.30;93.79
76011;BME280;64701;43.536;1.478;2022-11-15T07:45:14;98722.09;;;14.35;93.53
76011;BME280;64701;43.536;1.478;2022-11-15T07:47:40;98719.91;;;14.31;93.35
76011;BME280;64701;43.536;1.478;2022-11-15T07:50:05;98719.56;;;14.40;93.01
76011;BME280;64701;43.536;1.478;2022-11-15T07:52:30;98732.41;;;14.43;92.46
76011;BME280;64701;43.536;1.478;2022-11-15T07:54:56;98727.66;;;14.45;92.25
76011;BME280;64701;43.536;1.478;2022-11-15T07:57:21;98705.09;;;14.47;92.42
76011;BME280;64701;43.536;1.478;2022-11-15T07:59:46;98721.75;;;14.43;91.65
76011;BME280;64701;43.536;1.478;2022-11-15T08:02:12;98723.47;;;14.49;91.85
76011;BME280;64701;43.536;1.478;2022-11-15T08:04:37;98719.75;;;14.50;91.73
76011;BME280;64701;43.536;1.478;2022-11-15T08:07:02;98722.66;;;14.48;92.10
76011;BME280;64701;43.536;1.478;2022-11-15T08:09:27;98734.47;;;14.52;91.71
76011;BME280;64701;43.536;1.478;2022-11-15T08:11:53;98714.31;;;14.56;91.90
76011;BME280;64701;43.536;1.478;2022-11-15T08:14:18;98714.06;;;14.58;91.46
76011;BME280;64701;43.536;1.478;2022-11-15T08:16:43;98715.22;;;14.62;91.46
76011;BME280;64701;43.536;1.478;2022-11-15T08:19:09;98702.38;;;14.59;91.88
76011;BME280;64701;43.536;1.478;2022-11-15T08:21:34;98700.25;;;14.61;91.53
76011;BME280;64701;43.536;1.478;2022-11-15T08:24:00;98698.28;;;14.68;91.33
76011;BME280;64701;43.536;1.478;2022-11-15T08:26:25;98688.66;;;14.67;91.01
76011;BME280;64701;43.536;1.478;2022-11-15T08:28:54;98686.56;;;14.69;91.31
76011;BME280;64701;43.536;1.478;2022-11-15T08:31:19;98701.59;;;14.75;90.77
76011;BME280;64701;43.536;1.478;2022-11-15T08:33:44;98694.28;;;14.82;90.33
76011;BME280;64701;43.536;1.478;2022-11-15T08:36:13;98697.84;;;14.88;90.37
76011;BME280;64701;43.536;1.478;2022-11-15T08:38:39;98704.69;;;14.84;89.63
76011;BME280;64701;43.536;1.478;2022-11-15T08:41:05;98704.44;;;14.85;89.96
76011;BME280;64701;43.536;1.478;2022-11-15T08:43:31;98700.84;;;14.91;89.59
76011;BME280;64701;43.536;1.478;2022-11-15T08:45:56;98706.25;;;14.96;89.61
76011;BME280;64701;43.536;1.478;2022-11-15T08:48:22;98703.13;;;15.16;89.39
76011;BME280;64701;43.536;1.478;2022-11-15T08:50:47;98702.69;;;15.36;88.51
76011;BME280;64701;43.536;1.478;2022-11-15T08:53:12;98703.00;;;15.56;87.31
76011;BME280;64701;43.536;1.478;2022-11-15T08:55:38;98711.34;;;15.76;86.39
76011;BME280;64701;43.536;1.478;2022-11-15T08:58:03;98710.34;;;15.82;85.74
76011;BME280;64701;43.536;1.478;2022-11-15T09:00:29;98714.06;;;15.81;85.21
76011;BME280;64701;43.536;1.478;2022-11-15T09:02:54;98711.34;;;15.76;84.91
76011;BME280;64701;43.536;1.478;2022-11-15T09:05:19;98716.66;;;15.76;84.94
76011;BME280;64701;43.536;1.478;2022-11-15T09:07:45;98704.44;;;15.80;84.92
76011;BME280;64701;43.536;1.478;2022-11-15T09:10:10;98697.31;;;15.86;85.18
76011;BME280;64701;43.536;1.478;2022-11-15T09:12:35;98702.81;;;15.79;84.64
76011;BME280;64701;43.536;1.478;2022-11-15T09:15:01;98702.19;;;15.72;84.88
76011;BME280;64701;43.536;1.478;2022-11-15T09:17:26;98700.50;;;15.66;84.97
76011;BME280;64701;43.536;1.478;2022-11-15T09:19:51;98695.25;;;15.71;84.39
76011;BME280;64701;43.536;1.478;2022-11-15T09:22:16;98697.16;;;15.76;84.55
76011;BME280;64701;43.536;1.478;2022-11-15T09:24:42;98693.69;;;15.75;84.25
76011;BME280;64701;43.536;1.478;2022-11-15T09:27:07;98693.59;;;15.87;84.00
76011;BME280;64701;43.536;1.478;2022-11-15T09:29:32;98681.13;;;15.92;83.54
76011;BME280;64701;43.536;1.478;2022-11-15T09:31:58;98680.47;;;16.02;83.41
76011;BME280;64701;43.536;1.478;2022-11-15T09:34:24;98678.59;;;16.03;82.81
76011;BME280;64701;43.536;1.478;2022-11-15T09:36:49;98680.75;;;16.06;82.29
76011;BME280;64701;43.536;1.478;2022-11-15T09:39:14;98672.63;;;16.17;81.88
76011;BME280;64701;43.536;1.478;2022-11-15T09:46:53;98671.75;;;16.55;80.25
76011;BME280;64701;43.536;1.478;2022-11-15T09:49:22;98676.03;;;16.56;80.31
76011;BME280;64701;43.536;1.478;2022-11-15T09:51:52;98682.00;;;16.63;80.62
76011;BME280;64701;43.536;1.478;2022-11-15T09:54:40;98666.38;;;16.77;80.76
76011;BME280;64701;43.536;1.478;2022-11-15T09:57:15;98677.34;;;17.02;80.31
76011;BME280;64701;43.536;1.478;2022-11-15T10:00:27;98667.69;;;17.01;78.99
76011;BME280;64701;43.536;1.478;2022-11-15T10:05:11;98675.97;;;17.00;79.25
76011;BME280;64701;43.536;1.478;2022-11-15T10:07:40;98677.50;;;16.91;79.41
76011;BME280;64701;43.536;1.478;2022-11-15T10:12:39;98682.53;;;16.87;79.32
76011;BME280;64701;43.536;1.478;2022-11-15T10:15:09;98672.34;;;16.84;79.23
76011;BME280;64701;43.536;1.478;2022-11-15T10:20:13;98656.78;;;17.08;78.45
76011;BME280;64701;43.536;1.478;2022-11-15T10:22:49;98659.13;;;17.63;77.66
76011;BME280;64701;43.536;1.478;2022-11-15T10:25:26;98648.97;;;18.27;76.32
76011;BME280;64701;43.536;1.478;2022-11-15T10:28:05;98643.25;;;18.91;74.15
76011;BME280;64701;43.536;1.478;2022-11-15T10:30:44;98632.50;;;19.32;71.61
76011;BME280;64701;43.536;1.478;2022-11-15T10:41:31;98631.34;;;19.93;69.50
76011;BME280;64701;43.536;1.478;2022-11-15T10:46:28;98631.53;;;20.71;66.98
76011;BME280;64701;43.536;1.478;2022-11-15T10:48:53;98628.63;;;20.63;67.17
76011;BME280;64701;43.536;1.478;2022-11-15T10:51:39;98623.25;;;20.63;67.62
76011;BME280;64701;43.536;1.478;2022-11-15T10:54:06;98622.03;;;20.40;67.79
76011;BME280;64701;43.536;1.478;2022-11-15T10:56:35;98620.16;;;20.41;67.24
76011;BME280;64701;43.536;1.478;2022-11-15T10:59:00;98609.63;;;20.44;68.35
76011;BME280;64701;43.536;1.478;2022-11-15T11:01:26;98607.44;;;20.51;68.10
76011;BME280;64701;43.536;1.478;2022-11-15T11:06:26;98606.34;;;21.30;66.02
76011;BME280;64701;43.536;1.478;2022-11-15T11:11:20;98597.59;;;21.09;65.12
76011;BME280;64701;43.536;1.478;2022-11-15T11:13:45;98593.53;;;21.17;64.58
76011;BME280;64701;43.536;1.478;2022-11-15T11:21:07;98578.44;;;20.48;66.99
76011;BME280;64701;43.536;1.478;2022-11-15T11:44:15;98566.19;;;22.05;63.17
76011;BME280;64701;43.536;1.478;2022-11-15T11:49:12;98549.81;;;23.69;59.00
76011;BME280;64701;43.536;1.478;2022-11-15T11:51:43;98543.03;;;24.93;54.92
76011;BME280;64701;43.536;1.478;2022-11-15T11:54:14;98549.72;;;26.05;56.09
76011;BME280;64701;43.536;1.478;2022-11-15T11:56:43;98542.00;;;25.73;54.46
76011;BME280;64701;43.536;1.478;2022-11-15T11:59:12;98541.69;;;24.68;53.10
76011;BME280;64701;43.536;1.478;2022-11-15T12:01:42;98530.13;;;24.18;55.85
76011;BME280;64701;43.536;1.478;2022-11-15T12:06:35;98540.34;;;22.79;57.55
76011;BME280;64701;43.536;1.478;2022-11-15T12:11:38;98536.88;;;22.22;60.25
76011;BME280;64701;43.536;1.478;2022-11-15T12:14:12;98534.56;;;21.68;61.26
76011;BME280;64701;43.536;1.478;2022-11-15T12:16:41;98532.03;;;21.53;62.27
76011;BME280;64701;43.536;1.478;2022-11-15T12:19:07;98538.34;;;21.43;63.64
76011;BME280;64701;43.536;1.478;2022-11-15T12:21:35;98540.88;;;21.58;63.26
76011;BME280;64701;43.536;1.478;2022-11-15T12:24:02;98549.88;;;21.73;63.44
76011;BME280;64701;43.536;1.478;2022-11-15T12:26:37;98547.19;;;21.73;63.24
76011;BME280;64701;43.536;1.478;2022-11-15T12:29:06;98542.69;;;21.63;62.04
76011;BME280;64701;43.536;1.478;2022-11-15T12:31:43;98546.13;;;21.21;62.55
76011;BME280;64701;43.536;1.478;2022-11-15T12:36:45;98552.56;;;20.91;63.52
76011;BME280;64701;43.536;1.478;2022-11-15T12:39:13;98550.03;;;20.71;64.07
76011;BME280;64701;43.536;1.478;2022-11-15T12:41:42;98547.75;;;20.54;64.91
76011;BME280;64701;43.536;1.478;2022-11-15T13:17:42;98511.31;;;20.28;65.20
76011;BME280;64701;43.536;1.478;2022-11-15T13:28:01;98528.34;;;19.44;67.74
76011;BME280;64701;43.536;1.478;2022-11-15T13:30:28;98528.91;;;19.31;68.62
76011;BME280;64701;43.536;1.478;2022-11-15T13:32:54;98527.88;;;19.16;68.53
76011;BME280;64701;43.536;1.478;2022-11-15T13:35:28;98525.22;;;19.06;68.90
76011;BME280;64701;43.536;1.478;2022-11-15T13:37:54;98524.13;;;19.07;68.88
76011;BME280;64701;43.536;1.478;2022-11-15T13:42:45;98534.03;;;19.27;68.55
76011;BME280;64701;43.536;1.478;2022-11-15T13:45:12;98533.19;;;19.37;68.56
76011;BME280;64701;43.536;1.478;2022-11-15T13:47:38;98529.72;;;19.36;68.41
76011;BME280;64701;43.536;1.478;2022-11-15T13:50:03;98544.47;;;19.34;68.74
76011;BME280;64701;43.536;1.478;2022-11-15T13:52:34;98533.19;;;19.37;68.75
76011;BME280;64701;43.536;1.478;2022-11-15T13:55:08;98535.63;;;19.33;68.08
76011;BME280;64701;43.536;1.478;2022-11-15T13:57:40;98536.44;;;19.18;68.23
76011;BME280;64701;43.536;1.478;2022-11-15T14:00:24;98534.84;;;19.07;69.12
76011;BME280;64701;43.536;1.478;2022-11-15T14:02:50;98532.19;;;19.02;69.38
76011;BME280;64701;43.536;1.478;2022-11-15T14:05:22;98535.13;;;19.01;69.41
76011;BME280;64701;43.536;1.478;2022-11-15T14:07:58;98538.38;;;18.93;69.41
76011;BME280;64701;43.536;1.478;2022-11-15T14:10:29;98535.41;;;18.79;69.54
76011;BME280;64701;43.536;1.478;2022-11-15T14:12:55;98535.94;;;18.71;69.52
76011;BME280;64701;43.536;1.478;2022-11-15T14:17:48;98539.72;;;18.70;69.85
76011;BME280;64701;43.536;1.478;2022-11-15T14:22:55;98554.72;;;18.71;70.25
76011;BME280;64701;43.536;1.478;2022-11-15T14:25:22;98557.94;;;18.68;70.03
76011;BME280;64701;43.536;1.478;2022-11-15T14:30:32;98566.53;;;18.70;70.36
76011;BME280;64701;43.536;1.478;2022-11-15T14:32:57;98568.13;;;18.71;69.99
76011;BME280;64701;43.536;1.478;2022-11-15T14:35:22;98576.47;;;18.69;69.75
76011;BME280;64701;43.536;1.478;2022-11-15T14:37:48;98578.84;;;18.71;70.79
76011;BME280;64701;43.536;1.478;2022-11-15T14:40:14;98576.72;;;18.73;70.43
76011;BME280;64701;43.536;1.478;2022-11-15T14:42:41;98576.72;;;18.73;70.53
76011;BME280;64701;43.536;1.478;2022-11-15T14:45:13;98576.16;;;18.71;70.81
76011;BME280;64701;43.536;1.478;2022-11-15T14:47:39;98567.06;;;18.67;70.77
76011;BME280;64701;43.536;1.478;2022-11-15T14:50:05;98531.94;;;18.63;70.46
76011;BME280;64701;43.536;1.478;2022-11-15T14:52:31;98536.25;;;18.64;70.55
76011;BME280;64701;43.536;1.478;2022-11-15T14:54:59;98533.81;;;18.63;70.42
76011;BME280;64701;43.536;1.478;2022-11-15T14:57:26;98533.81;;;18.63;70.60
76011;BME280;64701;43.536;1.478;2022-11-15T14:59:51;98516.66;;;18.59;70.29
76011;BME280;64701;43.536;1.478;2022-11-15T15:02:19;98496.53;;;18.56;70.41
76011;BME280;64701;43.536;1.478;2022-11-15T15:04:45;98471.59;;;18.51;70.65
76011;BME280;64701;43.536;1.478;2022-11-15T15:07:10;98465.94;;;18.42;71.67
76011;BME280;64701;43.536;1.478;2022-11-15T15:09:35;98474.78;;;18.43;71.90
76011;BME280;64701;43.536;1.478;2022-11-15T15:12:00;98476.94;;;18.46;71.71
76011;BME280;64701;43.536;1.478;2022-11-15T15:14:26;98476.94;;;18.41;72.52
76011;BME280;64701;43.536;1.478;2022-11-15T15:16:51;98468.91;;;18.41;72.42
76011;BME280;64701;43.536;1.478;2022-11-15T15:19:16;98466.75;;;18.43;71.98
76011;BME280;64701;43.536;1.478;2022-11-15T15:21:42;98454.97;;;18.39;72.70
76011;BME280;64701;43.536;1.478;2022-11-15T15:24:09;98449.59;;;18.39;72.79
76011;BME280;64701;43.536;1.478;2022-11-15T15:26:38;98440.22;;;18.31;72.80
76011;BME280;64701;43.536;1.478;2022-11-15T15:29:04;98454.94;;;18.23;73.34
76011;BME280;64701;43.536;1.478;2022-11-15T15:31:29;98464.59;;;18.19;73.28
76011;BME280;64701;43.536;1.478;2022-11-15T15:33:55;98461.38;;;18.17;73.28
76011;BME280;64701;43.536;1.478;2022-11-15T15:36:20;98462.72;;;18.15;73.18